sensor_id;sensor_type;location;lat;lon;timestamp;P1;durP1;ratioP1;P2;durP2;ratioP2
27375;SDS011;14844;51.302;6.354;2023-03-01T00:01:20;15.60;;;9.70;;
27375;SDS011;14844;51.302;6.354;2023-03-01T00:03:48;16.00;;;9.73;;
27375;SDS011;14844;51.302;6.354;2023-03-01T00:06:14;14.45;;;9.20;;
27375;SDS011;14844;51.302;6.354;2023-03-01T00:08:40;19.10;;;9.70;;
27375;SDS011;14844;51.302;6.354;2023-03-01T00:13:35;13.55;;;9.00;;
27375;SDS011;14844;51.302;6.354;2023-03-01T00:16:04;13.93;;;9.57;;
27375;SDS011;14844;51.302;6.354;2023-03-01T00:18:32;13.55;;;9.77;;
27375;SDS011;14844;51.302;6.354;2023-03-01T00:20:57;18.55;;;9.20;;
27375;SDS011;14844;51.302;6.354;2023-03-01T00:23:24;16.42;;;9.43;;
27375;SDS011;14844;51.302;6.354;2023-03-01T00:25:50;14.65;;;9.48;;
27375;SDS011;14844;51.302;6.354;2023-03-01T00:28:16;13.73;;;9.15;;
27375;SDS011;14844;51.302;6.354;2023-03-01T00:30:42;13.85;;;9.65;;
27375;SDS011;14844;51.302;6.354;2023-03-01T00:33:08;13.77;;;9.43;;
27375;SDS011;14844;51.302;6.354;2023-03-01T00:35:34;15.20;;;9.20;;
27375;SDS011;14844;51.302;6.354;2023-03-01T00:38:00;15.93;;;9.82;;
27375;SDS011;14844;51.302;6.354;2023-03-01T00:40:27;16.73;;;10.00;;
27375;SDS011;14844;51.302;6.354;2023-03-01T00:42:53;14.20;;;8.85;;
27375;SDS011;14844;51.302;6.354;2023-03-01T00:45:19;14.95;;;9.95;;
27375;SDS011;14844;51.302;6.354;2023-03-01T00:47:45;14.27;;;9.05;;
27375;SDS011;14844;51.302;6.354;2023-03-01T00:50:11;14.38;;;9.35;;
27375;SDS011;14844;51.302;6.354;2023-03-01T00:52:37;18.80;;;9.25;;
27375;SDS011;14844;51.302;6.354;2023-03-01T00:55:03;15.55;;;9.02;;
27375;SDS011;14844;51.302;6.354;2023-03-01T00:57:29;16.67;;;9.90;;
27375;SDS011;14844;51.302;6.354;2023-03-01T00:59:55;16.40;;;8.98;;
27375;SDS011;14844;51.302;6.354;2023-03-01T01:02:20;14.43;;;9.27;;
27375;SDS011;14844;51.302;6.354;2023-03-01T01:04:46;16.83;;;9.30;;
27375;SDS011;14844;51.302;6.354;2023-03-01T01:07:12;15.70;;;9.55;;
27375;SDS011;14844;51.302;6.354;2023-03-01T01:09:38;15.77;;;9.93;;
27375;SDS011;14844;51.302;6.354;2023-03-01T01:12:04;17.02;;;10.13;;
27375;SDS011;14844;51.302;6.354;2023-03-01T01:14:29;31.13;;;11.23;;
27375;SDS011;14844;51.302;6.354;2023-03-01T01:16:55;15.57;;;10.05;;
27375;SDS011;14844;51.302;6.354;2023-03-01T01:19:21;18.63;;;10.38;;
27375;SDS011;14844;51.302;6.354;2023-03-01T01:21:47;18.15;;;10.55;;
27375;SDS011;14844;51.302;6.354;2023-03-01T01:24:14;18.25;;;10.48;;
27375;SDS011;14844;51.302;6.354;2023-03-01T01:26:39;19.42;;;11.35;;
27375;SDS011;14844;51.302;6.354;2023-03-01T01:29:06;18.50;;;11.10;;
27375;SDS011;14844;51.302;6.354;2023-03-01T01:31:32;17.30;;;10.70;;
27375;SDS011;14844;51.302;6.354;2023-03-01T01:33:59;17.52;;;11.23;;
27375;SDS011;14844;51.302;6.354;2023-03-01T01:36:25;19.42;;;11.35;;
27375;SDS011;14844;51.302;6.354;2023-03-01T01:38:51;19.00;;;11.65;;
27375;SDS011;14844;51.302;6.354;2023-03-01T01:41:17;22.08;;;12.20;;
27375;SDS011;14844;51.302;6.354;2023-03-01T01:43:44;21.33;;;11.60;;
27375;SDS011;14844;51.302;6.354;2023-03-01T01:46:24;21.30;;;12.40;;
27375;SDS011;14844;51.302;6.354;2023-03-01T01:49:00;22.65;;;12.45;;
27375;SDS011;14844;51.302;6.354;2023-03-01T01:51:32;21.60;;;12.25;;
27375;SDS011;14844;51.302;6.354;2023-03-01T01:54:06;20.95;;;12.60;;
27375;SDS011;14844;51.302;6.354;2023-03-01T01:59:02;18.83;;;11.02;;
27375;SDS011;14844;51.302;6.354;2023-03-01T02:01:28;20.88;;;11.68;;
27375;SDS011;14844;51.302;6.354;2023-03-01T02:03:53;19.20;;;11.80;;
27375;SDS011;14844;51.302;6.354;2023-03-01T02:06:39;22.23;;;12.13;;
27375;SDS011;14844;51.302;6.354;2023-03-01T02:09:13;20.45;;;12.25;;
27375;SDS011;14844;51.302;6.354;2023-03-01T02:11:40;19.98;;;12.32;;
27375;SDS011;14844;51.302;6.354;2023-03-01T02:14:06;19.23;;;11.65;;
27375;SDS011;14844;51.302;6.354;2023-03-01T02:16:32;21.02;;;12.73;;
27375;SDS011;14844;51.302;6.354;2023-03-01T02:18:57;24.95;;;14.10;;
27375;SDS011;14844;51.302;6.354;2023-03-01T02:21:36;21.08;;;12.50;;
27375;SDS011;14844;51.302;6.354;2023-03-01T02:26:51;24.55;;;13.10;;
27375;SDS011;14844;51.302;6.354;2023-03-01T02:29:19;22.27;;;13.57;;
27375;SDS011;14844;51.302;6.354;2023-03-01T02:31:46;29.73;;;15.15;;
27375;SDS011;14844;51.302;6.354;2023-03-01T02:34:13;27.00;;;14.23;;
27375;SDS011;14844;51.302;6.354;2023-03-01T02:36:43;23.95;;;14.27;;
27375;SDS011;14844;51.302;6.354;2023-03-01T02:39:10;20.40;;;13.77;;
27375;SDS011;14844;51.302;6.354;2023-03-01T02:41:47;25.92;;;14.43;;
27375;SDS011;14844;51.302;6.354;2023-03-01T02:44:16;23.45;;;14.48;;
27375;SDS011;14844;51.302;6.354;2023-03-01T02:46:43;24.58;;;14.20;;
27375;SDS011;14844;51.302;6.354;2023-03-01T02:49:28;23.20;;;14.30;;
27375;SDS011;14844;51.302;6.354;2023-03-01T02:54:26;26.58;;;14.32;;
27375;SDS011;14844;51.302;6.354;2023-03-01T02:56:56;21.27;;;13.35;;
27375;SDS011;14844;51.302;6.354;2023-03-01T02:59:22;26.30;;;14.05;;
27375;SDS011;14844;51.302;6.354;2023-03-01T03:01:52;29.55;;;14.93;;
27375;SDS011;14844;51.302;6.354;2023-03-01T03:04:18;22.40;;;14.43;;
27375;SDS011;14844;51.302;6.354;2023-03-01T03:06:46;23.88;;;15.30;;
27375;SDS011;14844;51.302;6.354;2023-03-01T03:09:13;27.08;;;14.65;;
27375;SDS011;14844;51.302;6.354;2023-03-01T03:11:40;28.20;;;15.23;;
27375;SDS011;14844;51.302;6.354;2023-03-01T03:14:07;23.30;;;14.38;;
27375;SDS011;14844;51.302;6.354;2023-03-01T03:16:39;23.13;;;14.75;;
27375;SDS011;14844;51.302;6.354;2023-03-01T03:19:06;22.95;;;14.45;;
27375;SDS011;14844;51.302;6.354;2023-03-01T03:21:32;23.92;;;14.80;;
27375;SDS011;14844;51.302;6.354;2023-03-01T03:23:58;24.10;;;14.43;;
27375;SDS011;14844;51.302;6.354;2023-03-01T03:26:23;23.55;;;13.93;;
27375;SDS011;14844;51.302;6.354;2023-03-01T03:28:49;21.08;;;13.75;;
27375;SDS011;14844;51.302;6.354;2023-03-01T03:31:15;22.40;;;14.48;;
27375;SDS011;14844;51.302;6.354;2023-03-01T03:33:40;23.30;;;14.25;;
27375;SDS011;14844;51.302;6.354;2023-03-01T03:36:06;25.63;;;15.73;;
27375;SDS011;14844;51.302;6.354;2023-03-01T03:38:38;30.67;;;15.43;;
27375;SDS011;14844;51.302;6.354;2023-03-01T03:41:06;24.92;;;15.25;;
27375;SDS011;14844;51.302;6.354;2023-03-01T03:43:33;29.75;;;15.50;;
27375;SDS011;14844;51.302;6.354;2023-03-01T03:46:01;22.52;;;15.10;;
27375;SDS011;14844;51.302;6.354;2023-03-01T03:48:32;30.52;;;15.27;;
27375;SDS011;14844;51.302;6.354;2023-03-01T03:50:59;22.70;;;14.48;;
27375;SDS011;14844;51.302;6.354;2023-03-01T03:53:25;25.30;;;14.63;;
27375;SDS011;14844;51.302;6.354;2023-03-01T03:55:53;21.50;;;14.73;;
27375;SDS011;14844;51.302;6.354;2023-03-01T03:58:19;26.35;;;15.82;;
27375;SDS011;14844;51.302;6.354;2023-03-01T04:00:47;27.75;;;14.77;;
27375;SDS011;14844;51.302;6.354;2023-03-01T04:03:14;26.52;;;15.38;;
27375;SDS011;14844;51.302;6.354;2023-03-01T04:05:41;20.80;;;13.57;;
27375;SDS011;14844;51.302;6.354;2023-03-01T04:08:08;21.00;;;15.38;;
27375;SDS011;14844;51.302;6.354;2023-03-01T04:10:35;27.58;;;15.45;;
27375;SDS011;14844;51.302;6.354;2023-03-01T04:13:03;22.88;;;14.95;;
27375;SDS011;14844;51.302;6.354;2023-03-01T04:15:30;23.38;;;14.57;;
27375;SDS011;14844;51.302;6.354;2023-03-01T04:17:57;24.75;;;15.80;;
27375;SDS011;14844;51.302;6.354;2023-03-01T04:20:24;22.42;;;15.13;;
27375;SDS011;14844;51.302;6.354;2023-03-01T04:22:59;25.83;;;15.63;;
27375;SDS011;14844;51.302;6.354;2023-03-01T04:25:39;24.17;;;15.98;;
27375;SDS011;14844;51.302;6.354;2023-03-01T04:28:05;24.60;;;15.40;;
27375;SDS011;14844;51.302;6.354;2023-03-01T04:30:31;22.10;;;14.98;;
27375;SDS011;14844;51.302;6.354;2023-03-01T04:33:01;32.35;;;15.52;;
27375;SDS011;14844;51.302;6.354;2023-03-01T04:35:28;24.40;;;15.65;;
27375;SDS011;14844;51.302;6.354;2023-03-01T04:37:54;26.15;;;16.63;;
27375;SDS011;14844;51.302;6.354;2023-03-01T04:40:20;27.75;;;15.80;;
27375;SDS011;14844;51.302;6.354;2023-03-01T04:42:46;30.95;;;16.48;;
27375;SDS011;14844;51.302;6.354;2023-03-01T04:45:12;27.92;;;16.42;;
27375;SDS011;14844;51.302;6.354;2023-03-01T04:47:41;27.05;;;16.02;;
27375;SDS011;14844;51.302;6.354;2023-03-01T04:50:09;24.58;;;15.65;;
27375;SDS011;14844;51.302;6.354;2023-03-01T04:52:36;26.65;;;16.08;;
27375;SDS011;14844;51.302;6.354;2023-03-01T04:55:02;27.48;;;17.17;;
27375;SDS011;14844;51.302;6.354;2023-03-01T04:57:28;28.05;;;16.55;;
27375;SDS011;14844;51.302;6.354;2023-03-01T04:59:54;29.70;;;16.80;;
27375;SDS011;14844;51.302;6.354;2023-03-01T05:02:19;27.02;;;16.95;;
27375;SDS011;14844;51.302;6.354;2023-03-01T05:04:45;28.08;;;16.20;;
27375;SDS011;14844;51.302;6.354;2023-03-01T05:07:10;28.27;;;16.70;;
27375;SDS011;14844;51.302;6.354;2023-03-01T05:09:37;23.02;;;15.90;;
27375;SDS011;14844;51.302;6.354;2023-03-01T05:12:03;24.08;;;15.35;;
27375;SDS011;14844;51.302;6.354;2023-03-01T05:14:29;24.92;;;15.90;;
27375;SDS011;14844;51.302;6.354;2023-03-01T05:16:55;26.25;;;15.93;;
27375;SDS011;14844;51.302;6.354;2023-03-01T05:19:29;23.15;;;15.43;;
27375;SDS011;14844;51.302;6.354;2023-03-01T05:21:56;23.48;;;16.48;;
27375;SDS011;14844;51.302;6.354;2023-03-01T05:24:32;23.08;;;16.35;;
27375;SDS011;14844;51.302;6.354;2023-03-01T05:26:59;24.10;;;16.10;;
27375;SDS011;14844;51.302;6.354;2023-03-01T05:29:25;23.67;;;15.70;;
27375;SDS011;14844;51.302;6.354;2023-03-01T05:31:54;26.23;;;15.32;;
27375;SDS011;14844;51.302;6.354;2023-03-01T05:34:24;26.38;;;16.58;;
27375;SDS011;14844;51.302;6.354;2023-03-01T05:36:51;31.58;;;16.27;;
27375;SDS011;14844;51.302;6.354;2023-03-01T05:39:18;26.42;;;15.85;;
27375;SDS011;14844;51.302;6.354;2023-03-01T05:41:46;23.45;;;15.98;;
27375;SDS011;14844;51.302;6.354;2023-03-01T05:44:12;26.23;;;15.85;;
27375;SDS011;14844;51.302;6.354;2023-03-01T05:46:38;23.58;;;15.65;;
27375;SDS011;14844;51.302;6.354;2023-03-01T05:49:03;25.58;;;16.42;;
27375;SDS011;14844;51.302;6.354;2023-03-01T05:51:30;26.48;;;16.35;;
27375;SDS011;14844;51.302;6.354;2023-03-01T05:53:55;25.23;;;16.52;;
27375;SDS011;14844;51.302;6.354;2023-03-01T05:56:21;26.90;;;16.65;;
27375;SDS011;14844;51.302;6.354;2023-03-01T05:58:47;26.67;;;15.63;;
27375;SDS011;14844;51.302;6.354;2023-03-01T06:01:14;27.48;;;16.10;;
27375;SDS011;14844;51.302;6.354;2023-03-01T06:03:39;24.65;;;15.55;;
27375;SDS011;14844;51.302;6.354;2023-03-01T06:06:05;23.27;;;15.35;;
27375;SDS011;14844;51.302;6.354;2023-03-01T06:08:31;24.13;;;15.98;;
27375;SDS011;14844;51.302;6.354;2023-03-01T06:10:56;26.55;;;15.45;;
27375;SDS011;14844;51.302;6.354;2023-03-01T06:13:22;23.58;;;15.57;;
27375;SDS011;14844;51.302;6.354;2023-03-01T06:15:48;25.98;;;16.38;;
27375;SDS011;14844;51.302;6.354;2023-03-01T06:18:14;30.10;;;17.48;;
27375;SDS011;14844;51.302;6.354;2023-03-01T06:20:39;25.13;;;15.65;;
27375;SDS011;14844;51.302;6.354;2023-03-01T06:23:05;25.40;;;15.52;;
27375;SDS011;14844;51.302;6.354;2023-03-01T06:25:30;30.38;;;16.90;;
27375;SDS011;14844;51.302;6.354;2023-03-01T06:27:56;28.13;;;16.77;;
27375;SDS011;14844;51.302;6.354;2023-03-01T06:30:23;27.60;;;15.77;;
27375;SDS011;14844;51.302;6.354;2023-03-01T06:32:50;29.50;;;16.08;;
27375;SDS011;14844;51.302;6.354;2023-03-01T06:35:16;29.27;;;17.20;;
27375;SDS011;14844;51.302;6.354;2023-03-01T06:37:42;28.90;;;15.98;;
27375;SDS011;14844;51.302;6.354;2023-03-01T06:40:09;29.02;;;17.08;;
27375;SDS011;14844;51.302;6.354;2023-03-01T06:42:37;28.65;;;16.20;;
27375;SDS011;14844;51.302;6.354;2023-03-01T06:45:04;28.23;;;17.10;;
27375;SDS011;14844;51.302;6.354;2023-03-01T06:47:31;31.25;;;17.33;;
27375;SDS011;14844;51.302;6.354;2023-03-01T06:49:58;27.77;;;16.73;;
27375;SDS011;14844;51.302;6.354;2023-03-01T06:52:24;25.33;;;15.75;;
27375;SDS011;14844;51.302;6.354;2023-03-01T06:54:49;29.23;;;16.52;;
27375;SDS011;14844;51.302;6.354;2023-03-01T06:57:15;25.35;;;15.48;;
27375;SDS011;14844;51.302;6.354;2023-03-01T06:59:40;27.80;;;15.48;;
27375;SDS011;14844;51.302;6.354;2023-03-01T07:02:08;23.05;;;14.55;;
27375;SDS011;14844;51.302;6.354;2023-03-01T07:04:38;29.85;;;15.10;;
27375;SDS011;14844;51.302;6.354;2023-03-01T07:07:04;24.95;;;14.75;;
27375;SDS011;14844;51.302;6.354;2023-03-01T07:09:30;25.40;;;14.77;;
27375;SDS011;14844;51.302;6.354;2023-03-01T07:11:56;22.55;;;14.27;;
27375;SDS011;14844;51.302;6.354;2023-03-01T07:14:22;22.25;;;14.70;;
27375;SDS011;14844;51.302;6.354;2023-03-01T07:16:49;21.13;;;14.70;;
27375;SDS011;14844;51.302;6.354;2023-03-01T07:19:15;22.70;;;14.35;;
27375;SDS011;14844;51.302;6.354;2023-03-01T07:21:40;24.33;;;14.80;;
27375;SDS011;14844;51.302;6.354;2023-03-01T07:27:28;21.85;;;14.05;;
27375;SDS011;14844;51.302;6.354;2023-03-01T07:29:53;21.08;;;13.93;;
27375;SDS011;14844;51.302;6.354;2023-03-01T07:32:19;20.95;;;13.63;;
27375;SDS011;14844;51.302;6.354;2023-03-01T07:34:44;26.02;;;14.38;;
27375;SDS011;14844;51.302;6.354;2023-03-01T07:37:10;21.02;;;14.13;;
27375;SDS011;14844;51.302;6.354;2023-03-01T07:39:35;27.65;;;14.68;;
27375;SDS011;14844;51.302;6.354;2023-03-01T07:42:01;25.45;;;14.45;;
27375;SDS011;14844;51.302;6.354;2023-03-01T07:44:26;28.92;;;14.45;;
27375;SDS011;14844;51.302;6.354;2023-03-01T07:46:53;24.98;;;13.45;;
27375;SDS011;14844;51.302;6.354;2023-03-01T07:49:21;27.10;;;13.15;;
27375;SDS011;14844;51.302;6.354;2023-03-01T07:51:47;26.50;;;13.48;;
27375;SDS011;14844;51.302;6.354;2023-03-01T07:54:12;25.05;;;12.93;;
27375;SDS011;14844;51.302;6.354;2023-03-01T07:56:38;20.77;;;12.68;;
27375;SDS011;14844;51.302;6.354;2023-03-01T07:59:03;31.13;;;12.98;;
27375;SDS011;14844;51.302;6.354;2023-03-01T08:01:29;21.83;;;13.55;;
27375;SDS011;14844;51.302;6.354;2023-03-01T08:03:54;21.02;;;12.50;;
27375;SDS011;14844;51.302;6.354;2023-03-01T08:06:20;21.25;;;12.98;;
27375;SDS011;14844;51.302;6.354;2023-03-01T08:08:45;23.90;;;12.98;;
27375;SDS011;14844;51.302;6.354;2023-03-01T08:11:11;21.52;;;12.07;;
27375;SDS011;14844;51.302;6.354;2023-03-01T08:13:39;21.90;;;12.52;;
27375;SDS011;14844;51.302;6.354;2023-03-01T08:16:10;23.80;;;12.38;;
27375;SDS011;14844;51.302;6.354;2023-03-01T08:18:37;21.23;;;11.82;;
27375;SDS011;14844;51.302;6.354;2023-03-01T08:21:06;22.35;;;11.57;;
27375;SDS011;14844;51.302;6.354;2023-03-01T08:23:40;25.75;;;12.27;;
27375;SDS011;14844;51.302;6.354;2023-03-01T08:26:19;18.55;;;11.98;;
27375;SDS011;14844;51.302;6.354;2023-03-01T08:28:46;25.63;;;11.10;;
27375;SDS011;14844;51.302;6.354;2023-03-01T08:31:22;20.25;;;11.52;;
27375;SDS011;14844;51.302;6.354;2023-03-01T08:33:51;19.92;;;11.00;;
27375;SDS011;14844;51.302;6.354;2023-03-01T08:36:23;21.30;;;11.70;;
27375;SDS011;14844;51.302;6.354;2023-03-01T08:38:50;23.20;;;12.07;;
27375;SDS011;14844;51.302;6.354;2023-03-01T08:41:16;24.60;;;11.57;;
27375;SDS011;14844;51.302;6.354;2023-03-01T08:43:42;19.35;;;11.60;;
27375;SDS011;14844;51.302;6.354;2023-03-01T08:46:08;18.67;;;11.02;;
27375;SDS011;14844;51.302;6.354;2023-03-01T08:48:33;18.77;;;11.63;;
27375;SDS011;14844;51.302;6.354;2023-03-01T08:51:20;19.65;;;11.75;;
27375;SDS011;14844;51.302;6.354;2023-03-01T08:53:45;19.73;;;11.40;;
27375;SDS011;14844;51.302;6.354;2023-03-01T08:56:15;17.83;;;11.25;;
27375;SDS011;14844;51.302;6.354;2023-03-01T08:58:47;22.48;;;11.82;;
27375;SDS011;14844;51.302;6.354;2023-03-01T09:01:15;20.05;;;11.70;;
27375;SDS011;14844;51.302;6.354;2023-03-01T09:03:41;23.95;;;11.85;;
27375;SDS011;14844;51.302;6.354;2023-03-01T09:06:07;18.40;;;12.38;;
27375;SDS011;14844;51.302;6.354;2023-03-01T09:08:41;20.10;;;11.90;;
27375;SDS011;14844;51.302;6.354;2023-03-01T09:11:08;26.17;;;12.73;;
27375;SDS011;14844;51.302;6.354;2023-03-01T09:13:35;24.25;;;12.25;;
27375;SDS011;14844;51.302;6.354;2023-03-01T09:16:02;16.35;;;11.00;;
27375;SDS011;14844;51.302;6.354;2023-03-01T09:18:29;18.52;;;11.45;;
27375;SDS011;14844;51.302;6.354;2023-03-01T09:21:05;21.55;;;12.20;;
27375;SDS011;14844;51.302;6.354;2023-03-01T09:23:37;20.77;;;12.07;;
27375;SDS011;14844;51.302;6.354;2023-03-01T09:26:08;21.85;;;11.90;;
27375;SDS011;14844;51.302;6.354;2023-03-01T09:28:35;17.50;;;10.93;;
27375;SDS011;14844;51.302;6.354;2023-03-01T09:31:01;19.73;;;11.40;;
27375;SDS011;14844;51.302;6.354;2023-03-01T09:33:28;17.85;;;10.88;;
27375;SDS011;14844;51.302;6.354;2023-03-01T09:35:58;17.35;;;10.82;;
27375;SDS011;14844;51.302;6.354;2023-03-01T09:38:25;16.53;;;11.00;;
27375;SDS011;14844;51.302;6.354;2023-03-01T09:40:51;18.05;;;11.82;;
27375;SDS011;14844;51.302;6.354;2023-03-01T09:46:22;19.95;;;11.68;;
27375;SDS011;14844;51.302;6.354;2023-03-01T09:48:52;21.23;;;11.90;;
27375;SDS011;14844;51.302;6.354;2023-03-01T09:51:26;18.83;;;11.32;;
27375;SDS011;14844;51.302;6.354;2023-03-01T09:53:57;18.92;;;11.45;;
27375;SDS011;14844;51.302;6.354;2023-03-01T09:58:59;19.63;;;11.80;;
27375;SDS011;14844;51.302;6.354;2023-03-01T10:04:27;22.95;;;11.77;;
27375;SDS011;14844;51.302;6.354;2023-03-01T10:09:55;22.02;;;11.32;;
27375;SDS011;14844;51.302;6.354;2023-03-01T10:12:22;20.88;;;11.70;;
27375;SDS011;14844;51.302;6.354;2023-03-01T10:17:48;19.25;;;10.65;;
27375;SDS011;14844;51.302;6.354;2023-03-01T10:20:25;17.27;;;10.13;;
27375;SDS011;14844;51.302;6.354;2023-03-01T10:23:09;17.55;;;11.32;;
27375;SDS011;14844;51.302;6.354;2023-03-01T10:28:25;20.00;;;11.40;;
27375;SDS011;14844;51.302;6.354;2023-03-01T10:30:56;22.80;;;11.00;;
27375;SDS011;14844;51.302;6.354;2023-03-01T10:33:24;22.17;;;11.77;;
27375;SDS011;14844;51.302;6.354;2023-03-01T10:35:53;21.13;;;11.73;;
27375;SDS011;14844;51.302;6.354;2023-03-01T10:38:19;20.52;;;11.77;;
27375;SDS011;14844;51.302;6.354;2023-03-01T10:40:59;19.45;;;11.18;;
27375;SDS011;14844;51.302;6.354;2023-03-01T10:43:47;21.35;;;10.80;;
27375;SDS011;14844;51.302;6.354;2023-03-01T10:46:22;18.52;;;11.07;;
27375;SDS011;14844;51.302;6.354;2023-03-01T10:49:06;16.77;;;10.57;;
27375;SDS011;14844;51.302;6.354;2023-03-01T10:51:51;17.67;;;10.65;;
27375;SDS011;14844;51.302;6.354;2023-03-01T10:54:28;18.67;;;11.15;;
27375;SDS011;14844;51.302;6.354;2023-03-01T10:56:56;18.75;;;11.23;;
27375;SDS011;14844;51.302;6.354;2023-03-01T10:59:31;18.13;;;10.55;;
27375;SDS011;14844;51.302;6.354;2023-03-01T11:04:59;19.35;;;10.30;;
27375;SDS011;14844;51.302;6.354;2023-03-01T11:10:21;14.68;;;9.93;;
27375;SDS011;14844;51.302;6.354;2023-03-01T11:12:51;16.83;;;10.65;;
27375;SDS011;14844;51.302;6.354;2023-03-01T11:15:21;16.42;;;10.23;;
27375;SDS011;14844;51.302;6.354;2023-03-01T11:17:52;16.77;;;10.10;;
27375;SDS011;14844;51.302;6.354;2023-03-01T11:20:34;16.30;;;9.60;;
27375;SDS011;14844;51.302;6.354;2023-03-01T11:23:02;19.02;;;10.68;;
27375;SDS011;14844;51.302;6.354;2023-03-01T11:25:42;20.00;;;10.88;;
27375;SDS011;14844;51.302;6.354;2023-03-01T11:28:13;13.70;;;9.43;;
27375;SDS011;14844;51.302;6.354;2023-03-01T11:30:49;17.10;;;10.68;;
27375;SDS011;14844;51.302;6.354;2023-03-01T11:36:26;16.63;;;9.98;;
27375;SDS011;14844;51.302;6.354;2023-03-01T11:39:15;18.77;;;10.27;;
27375;SDS011;14844;51.302;6.354;2023-03-01T11:41:48;20.10;;;10.40;;
27375;SDS011;14844;51.302;6.354;2023-03-01T11:44:19;17.08;;;10.30;;
27375;SDS011;14844;51.302;6.354;2023-03-01T11:47:06;17.20;;;9.55;;
27375;SDS011;14844;51.302;6.354;2023-03-01T11:49:47;23.05;;;10.60;;
27375;SDS011;14844;51.302;6.354;2023-03-01T11:52:28;16.55;;;9.38;;
27375;SDS011;14844;51.302;6.354;2023-03-01T12:03:40;17.52;;;9.48;;
27375;SDS011;14844;51.302;6.354;2023-03-01T12:09:04;18.38;;;9.05;;
27375;SDS011;14844;51.302;6.354;2023-03-01T12:14:34;15.75;;;9.25;;
27375;SDS011;14844;51.302;6.354;2023-03-01T12:22:31;15.35;;;9.20;;
27375;SDS011;14844;51.302;6.354;2023-03-01T12:25:10;15.63;;;8.73;;
27375;SDS011;14844;51.302;6.354;2023-03-01T12:33:28;14.10;;;8.55;;
27375;SDS011;14844;51.302;6.354;2023-03-01T12:39:15;16.27;;;8.50;;
27375;SDS011;14844;51.302;6.354;2023-03-01T12:50:20;17.15;;;7.97;;
27375;SDS011;14844;51.302;6.354;2023-03-01T12:52:50;15.10;;;7.20;;
27375;SDS011;14844;51.302;6.354;2023-03-01T12:55:22;11.82;;;6.50;;
27375;SDS011;14844;51.302;6.354;2023-03-01T13:01:13;12.98;;;7.40;;
27375;SDS011;14844;51.302;6.354;2023-03-01T13:06:44;10.38;;;6.80;;
27375;SDS011;14844;51.302;6.354;2023-03-01T13:11:58;12.90;;;7.00;;
27375;SDS011;14844;51.302;6.354;2023-03-01T13:16:49;12.70;;;6.20;;
27375;SDS011;14844;51.302;6.354;2023-03-01T13:19:23;13.95;;;7.10;;
27375;SDS011;14844;51.302;6.354;2023-03-01T13:21:57;13.40;;;6.55;;
27375;SDS011;14844;51.302;6.354;2023-03-01T13:24:24;13.73;;;7.68;;
27375;SDS011;14844;51.302;6.354;2023-03-01T13:32:27;16.50;;;7.03;;
27375;SDS011;14844;51.302;6.354;2023-03-01T13:37:41;13.88;;;7.40;;
27375;SDS011;14844;51.302;6.354;2023-03-01T13:42:43;13.23;;;7.88;;
27375;SDS011;14844;51.302;6.354;2023-03-01T13:47:59;21.33;;;8.45;;
27375;SDS011;14844;51.302;6.354;2023-03-01T13:50:32;13.18;;;7.80;;
27375;SDS011;14844;51.302;6.354;2023-03-01T13:53:03;13.05;;;7.40;;
27375;SDS011;14844;51.302;6.354;2023-03-01T13:55:47;14.52;;;7.45;;
27375;SDS011;14844;51.302;6.354;2023-03-01T13:58:31;11.48;;;7.25;;
27375;SDS011;14844;51.302;6.354;2023-03-01T14:01:18;14.02;;;7.50;;
27375;SDS011;14844;51.302;6.354;2023-03-01T14:03:46;18.20;;;7.72;;
27375;SDS011;14844;51.302;6.354;2023-03-01T14:06:13;17.52;;;7.30;;
27375;SDS011;14844;51.302;6.354;2023-03-01T14:08:40;14.50;;;7.57;;
27375;SDS011;14844;51.302;6.354;2023-03-01T14:21:09;10.75;;;6.85;;
27375;SDS011;14844;51.302;6.354;2023-03-01T14:23:39;16.63;;;7.65;;
27375;SDS011;14844;51.302;6.354;2023-03-01T14:26:07;10.43;;;6.80;;
27375;SDS011;14844;51.302;6.354;2023-03-01T14:28:36;80.47;;;50.47;;
27375;SDS011;14844;51.302;6.354;2023-03-01T14:31:22;14.10;;;7.68;;
27375;SDS011;14844;51.302;6.354;2023-03-01T14:34:03;15.23;;;7.95;;
27375;SDS011;14844;51.302;6.354;2023-03-01T14:36:30;11.38;;;6.97;;
27375;SDS011;14844;51.302;6.354;2023-03-01T14:38:58;11.90;;;7.20;;
27375;SDS011;14844;51.302;6.354;2023-03-01T14:41:29;15.68;;;7.82;;
27375;SDS011;14844;51.302;6.354;2023-03-01T14:44:00;12.68;;;7.05;;
27375;SDS011;14844;51.302;6.354;2023-03-01T14:46:41;11.65;;;6.55;;
27375;SDS011;14844;51.302;6.354;2023-03-01T14:49:10;11.98;;;7.20;;
27375;SDS011;14844;51.302;6.354;2023-03-01T14:51:41;11.27;;;7.35;;
27375;SDS011;14844;51.302;6.354;2023-03-01T14:54:21;15.32;;;7.88;;
27375;SDS011;14844;51.302;6.354;2023-03-01T14:56:51;14.48;;;7.45;;
27375;SDS011;14844;51.302;6.354;2023-03-01T14:59:19;19.00;;;8.13;;
27375;SDS011;14844;51.302;6.354;2023-03-01T15:01:48;16.25;;;8.02;;
27375;SDS011;14844;51.302;6.354;2023-03-01T15:04:15;13.38;;;7.40;;
27375;SDS011;14844;51.302;6.354;2023-03-01T15:06:41;15.32;;;7.53;;
27375;SDS011;14844;51.302;6.354;2023-03-01T15:09:11;15.98;;;7.47;;
27375;SDS011;14844;51.302;6.354;2023-03-01T15:11:40;13.05;;;7.45;;
27375;SDS011;14844;51.302;6.354;2023-03-01T15:14:27;14.98;;;6.97;;
27375;SDS011;14844;51.302;6.354;2023-03-01T15:17:30;15.73;;;6.82;;
27375;SDS011;14844;51.302;6.354;2023-03-01T15:19:59;11.73;;;6.53;;
27375;SDS011;14844;51.302;6.354;2023-03-01T15:22:29;14.60;;;7.53;;
27375;SDS011;14844;51.302;6.354;2023-03-01T15:24:54;12.77;;;7.32;;
27375;SDS011;14844;51.302;6.354;2023-03-01T15:27:21;16.27;;;7.45;;
27375;SDS011;14844;51.302;6.354;2023-03-01T15:29:49;12.98;;;7.57;;
27375;SDS011;14844;51.302;6.354;2023-03-01T15:34:53;14.18;;;7.65;;
27375;SDS011;14844;51.302;6.354;2023-03-01T15:37:40;14.75;;;7.43;;
27375;SDS011;14844;51.302;6.354;2023-03-01T15:40:25;13.05;;;7.40;;
27375;SDS011;14844;51.302;6.354;2023-03-01T15:43:05;14.80;;;7.22;;
27375;SDS011;14844;51.302;6.354;2023-03-01T15:45:57;13.73;;;7.65;;
27375;SDS011;14844;51.302;6.354;2023-03-01T15:50:54;13.65;;;8.00;;
27375;SDS011;14844;51.302;6.354;2023-03-01T15:53:22;13.02;;;7.57;;
27375;SDS011;14844;51.302;6.354;2023-03-01T15:55:48;15.60;;;8.65;;
27375;SDS011;14844;51.302;6.354;2023-03-01T15:58:16;15.65;;;8.35;;
27375;SDS011;14844;51.302;6.354;2023-03-01T16:00:43;16.48;;;8.35;;
27375;SDS011;14844;51.302;6.354;2023-03-01T16:03:10;13.32;;;7.72;;
27375;SDS011;14844;51.302;6.354;2023-03-01T16:05:36;12.68;;;7.72;;
27375;SDS011;14844;51.302;6.354;2023-03-01T16:08:03;15.38;;;8.57;;
27375;SDS011;14844;51.302;6.354;2023-03-01T16:10:31;12.38;;;8.30;;
27375;SDS011;14844;51.302;6.354;2023-03-01T16:12:57;12.80;;;8.27;;
27375;SDS011;14844;51.302;6.354;2023-03-01T16:15:24;13.98;;;8.50;;
27375;SDS011;14844;51.302;6.354;2023-03-01T16:17:52;12.93;;;8.70;;
27375;SDS011;14844;51.302;6.354;2023-03-01T16:20:18;15.77;;;8.98;;
27375;SDS011;14844;51.302;6.354;2023-03-01T16:22:44;16.17;;;8.50;;
27375;SDS011;14844;51.302;6.354;2023-03-01T16:25:13;15.63;;;8.38;;
27375;SDS011;14844;51.302;6.354;2023-03-01T16:27:44;22.48;;;8.95;;
27375;SDS011;14844;51.302;6.354;2023-03-01T16:30:11;13.70;;;8.23;;
27375;SDS011;14844;51.302;6.354;2023-03-01T16:32:41;16.88;;;8.32;;
27375;SDS011;14844;51.302;6.354;2023-03-01T16:35:08;14.32;;;8.75;;